WEATHER DATA

TODAY
Time Temp. Dewp. Hum. Wind dir Wind speed Wind gust Bar.
00:07 18 12.9 72 0 0 1020.5
00:17 17.8 12.7 72 0 0 1020.5
00:27 17.6 12.7 73 0 0 1020.5
00:37 17.5 12.6 73 0 0 1020.5
00:48 17.3 12.6 74 0 0 1020.5
00:57 17.2 12.5 74 0 0 1020.3
01:07 17.2 12.7 75 0 0 1020.3
01:18 17 12.5 75 0 0 1020.4
01:28 16.9 12.4 75 0 0 1020.5
01:38 16.9 12.6 76 0 0 1020.5
01:47 17 12.7 76 0 0 1020.6
01:58 17 12.7 76 0 0 1020.5
02:08 17 12.7 76 0 0 1020.4
02:18 17 12.9 77 0 0 1020.4
02:28 17 12.9 77 0 0 1020.6
02:38 17 12.9 77 0 0 1020.8
02:48 17.2 13.1 77 0 0 1020.8
02:58 17.4 13.5 78 0 0 1020.8
03:08 17.5 13.6 78 0 0 1020.7
03:18 17.7 13.8 78 0 0 1020.5
03:28 17.9 14 78 0 0 1020.5
03:39 17.9 14 78 0 0 1020.5
03:48 17.8 13.9 78 0 0 1020.3
03:58 17.8 13.9 78 0 0 1020.3
04:08 17.7 13.8 78 0 0 1020.5
04:19 17.8 13.9 78 0 0 1020.6
04:29 17.8 13.9 78 0 0 1020.7
04:38 17.8 13.9 78 0 0 1020.7
04:49 17.7 13.6 77 0 0 1020.8
04:59 17.6 13.5 77 0 0 1020.8
05:09 17.5 13.4 77 0 0 1020.7
05:19 17.4 13.3 77 0 0 1020.7
05:29 17.3 13.2 77 0 0 1020.6
05:39 17.3 13.2 77 0 0 1020.6
05:49 17.2 13.1 77 0 0 1020.6
05:59 17.2 13.1 77 0 0 1020.6
06:09 17.3 13.2 77 0 0 1020.5
06:19 17.5 13.4 77 0 0 1020.5
06:29 17.6 13.3 76 0 0 1020.5
06:39 17.9 13.6 76 0 0 1020.7
06:49 18.1 13.8 76 0 0 1020.7
06:59 18.4 14.1 76 0 0 1020.8
07:10 18.6 14.3 76 0 0 1020.8
07:19 19 14.5 75 0 0 1020.8
07:29 19.5 15 75 0 0 1020.8
07:39 19.9 15.1 74 0 0 1021
07:50 20.4 15.6 74 0 0 1021
07:59 20.7 15.7 73 0 0 1021.1
08:09 21.1 15.9 72 0 0 1021.2
08:20 21.5 16 71 0 0 1021.4
08:30 21.6 15.9 70 0 0 1021.6
08:40 21.8 16.1 70 0 0 1021.9
08:50 21.6 15.7 69 0 0 1021.7
09:00 21.6 15.9 70 0 0 1021.6
09:10 21.8 15.9 69 0 0 1021.6
09:20 21.9 15.7 68 0 0 1021.6
09:30 22.3 16.1 68 0 0 1021.6
09:40 22.8 16.6 68 0 0 1021.6
09:50 23.2 16.5 66 0 0 1021.4
10:00 23.3 16.6 66 0 0 1021.4
10:10 23.1 16.4 66 0 0 1021.5
10:20 23.3 16.6 66 0 0 1021.5
10:30 23.6 16.6 65 0 0 1021.6
10:41 24 16.3 62 0 0 1021.6
10:50 24.2 16.5 62 0 0 1021.8
11:00 24.7 16.7 61 0 0 1021.9
11:11 24.8 16.2 59 0 0 1021.9
11:21 25 16.2 58 0 0 1021.8
11:31 25.2 16.9 60 0 0 1021.8
11:40 25.4 16.5 58 0 0 1021.8
11:51 25.7 16.8 58 0 0 1021.8
12:01 25.8 16.4 56 0 0 1021.7
12:11 25.8 16.4 56 0 0 1021.6
12:21 26.1 16.4 55 0 0 1021.6
12:31 26.5 16.7 55 0 0 1021.6
12:41 26.4 16.3 54 0 0 1021.9
12:51 25.8 16.4 56 0 0 1022.2
13:01 25.3 15.3 54 0 0 1022.5
13:11 24.5 14.9 55 0 0 1022.4
13:21 23.9 14.3 55 0 0 1022.4
13:32 24 15 57 0 0 1022.2
13:41 24.5 15.7 58 0 0 1022.2
13:51 24.9 16.1 58 0 0 1022.1
14:01 25.3 16.4 58 0 0 1021.9
14:12 25.6 15.9 55 0 0 1022
14:22 25.6 15.6 54 0 0 1021.8
14:31 25.6 15 52 0 0 1021.8
14:41 25.9 15.6 53 0 0 1021.6
14:52 26.4 15.8 52 0 0 1021.8
15:02 26.7 15.7 51 0 0 1021.7
15:12 26.4 14.5 48 0 0 1021.7
15:22 26.3 14.4 48 0 0 1021.8
15:32 25.9 14.4 49 0 0 1022
15:42 25.8 14.3 49 0 0 1022
15:52 25.4 14.5 51 0 0 1022.1

DAY STATISTIC

2022-07-06
TEMPERATURE
AVERAGE
21.0
HIGH
26.7
15:02
LOW
16.9
01:28
PRESSURE
AVERAGE
1021.2
HIGH
1022.5
13:01
LOW
1020.3
00:57
DEWPOINT
AVERAGE
14.7
HIGH
16.9
11:31
LOW
12.4
01:28
HUMIDITY
AVERAGE
68
HIGH
78
02:58
LOW
48
15:12
WIND SPEED
AVERAGE
0.0
HIGH
0.0
14:06
WIND GUST
AVERAGE
0.0
HIGH
0.0
14:06
WIND DIRECTION
PREVAILING
%
TEMPERATURE (°C)
LOW
16.9
HIGH
26.7
AVERAGE
21.0
PRESSURE (hpa)
LOW
1020.3
HIGH
1022.5
AVERAGE
1021.2
DEVICE